Bowbells, North Dakota
Current Conditions -  °F | °C
As of 9:15 PM on Monday 20 Oct 2014 (Local Time) from K08D Reporting Station
Clear Clear  
Wind Chill: 54°   Ceiling: Unl
Heat Index: 54°   Visibility: 10mi
Dew Point: 41°   Wind: 6mph
Humidity: 62%   Direction: 160°SSE
Pressure: 29.87"   Gusts: NA
Location:  48.8°N, 102.25°W
Report Text: K08D 210215Z AUTO 16005KT 10SM CLR 12/05 A2987 RMK AO2
Loading
Personal Weather Stations






























Interactive Weather Map
Tropical Storm Tracking
New forecast layout! Learn more

10-Day Weather Forecast

Advertisements
Track Severe Weather on mobile